Poquoson, Virginia
Current Conditions -  °F | °C
As of 8:58 PM on Sunday 21 Dec 2014 (Local Time) from KLFI Reporting Station
Clear Clear  
Wind Chill: 28°   Ceiling: Unl
Heat Index: 34°   Visibility: 10mi
Dew Point: 29°   Wind: 7mph
Humidity: 84%   Direction: 70°ENE
Pressure: 30.32"   Gusts: NA
Location:  37.13°N, 76.37°W
Report Text: KLFI 220158Z AUTO 07006KT 10SM CLR 01/M02 A3032 RMK AO2 SLP274 T00091016 $
Loading
Personal Weather Stations






























Interactive Weather Map New forecast layout! Learn more

10-Day Weather Forecast

Advertisements
Track Severe Weather on mobile